sensor_id;sensor_type;location;lat;lon;timestamp;P1;P2;P0
65574;PMS5003;52216;54.942;73.394;2023-02-11T00:02:10;12.00;11.00;3.00
65574;PMS5003;52216;54.942;73.394;2023-02-11T00:05:12;11.50;11.00;4.00
65574;PMS5003;52216;54.942;73.394;2023-02-11T00:08:25;11.00;9.25;4.00
65574;PMS5003;52216;54.942;73.394;2023-02-11T00:11:32;12.00;11.00;4.00
65574;PMS5003;52216;54.942;73.394;2023-02-11T00:14:35;11.00;10.50;4.00
65574;PMS5003;52216;54.942;73.394;2023-02-11T00:17:38;10.50;10.00;3.00
65574;PMS5003;52216;54.942;73.394;2023-02-11T00:20:51;8.33;8.00;3.00
65574;PMS5003;52216;54.942;73.394;2023-02-11T00:23:55;11.00;9.75;4.00
65574;PMS5003;52216;54.942;73.394;2023-02-11T00:26:59;14.00;12.50;5.00
65574;PMS5003;52216;54.942;73.394;2023-02-11T00:30:02;14.25;12.00;4.25
65574;PMS5003;52216;54.942;73.394;2023-02-11T00:33:10;12.00;12.00;4.00
65574;PMS5003;52216;54.942;73.394;2023-02-11T00:36:18;11.00;9.00;3.00
65574;PMS5003;52216;54.942;73.394;2023-02-11T00:39:31;11.00;11.00;4.00
65574;PMS5003;52216;54.942;73.394;2023-02-11T00:42:33;12.00;11.00;4.00
65574;PMS5003;52216;54.942;73.394;2023-02-11T00:45:36;13.00;11.00;4.00
65574;PMS5003;52216;54.942;73.394;2023-02-11T00:48:44;13.00;11.00;4.00
65574;PMS5003;52216;54.942;73.394;2023-02-11T00:51:56;14.00;12.00;4.50
65574;PMS5003;52216;54.942;73.394;2023-02-11T00:54:59;12.33;12.00;4.00
65574;PMS5003;52216;54.942;73.394;2023-02-11T00:58:01;14.00;12.00;6.00
65574;PMS5003;52216;54.942;73.394;2023-02-11T01:01:03;13.00;11.50;5.50
65574;PMS5003;52216;54.942;73.394;2023-02-11T01:04:10;13.25;11.75;4.00
65574;PMS5003;52216;54.942;73.394;2023-02-11T01:07:13;16.00;13.00;6.00
65574;PMS5003;52216;54.942;73.394;2023-02-11T01:10:21;12.25;11.00;4.00
65574;PMS5003;52216;54.942;73.394;2023-02-11T01:13:23;12.75;11.00;4.00
65574;PMS5003;52216;54.942;73.394;2023-02-11T01:16:31;11.00;11.00;5.00
65574;PMS5003;52216;54.942;73.394;2023-02-11T01:19:38;11.25;10.25;3.50
65574;PMS5003;52216;54.942;73.394;2023-02-11T01:22:41;15.25;12.75;6.00
65574;PMS5003;52216;54.942;73.394;2023-02-11T01:25:43;14.00;13.00;7.67
65574;PMS5003;52216;54.942;73.394;2023-02-11T01:28:47;19.00;17.67;9.00
65574;PMS5003;52216;54.942;73.394;2023-02-11T01:31:50;19.00;17.00;8.75
65574;PMS5003;52216;54.942;73.394;2023-02-11T01:34:54;15.00;15.00;7.00
65574;PMS5003;52216;54.942;73.394;2023-02-11T01:38:07;13.00;12.00;4.00
65574;PMS5003;52216;54.942;73.394;2023-02-11T01:41:21;12.50;12.50;5.50
65574;PMS5003;52216;54.942;73.394;2023-02-11T01:44:26;15.25;14.00;7.50
65574;PMS5003;52216;54.942;73.394;2023-02-11T01:47:39;19.00;14.00;8.00
65574;PMS5003;52216;54.942;73.394;2023-02-11T01:50:54;18.33;16.00;8.00
65574;PMS5003;52216;54.942;73.394;2023-02-11T01:53:58;18.00;16.00;8.00
65574;PMS5003;52216;54.942;73.394;2023-02-11T01:57:31;16.00;14.00;6.00
65574;PMS5003;52216;54.942;73.394;2023-02-11T02:00:36;17.00;14.00;7.00
65574;PMS5003;52216;54.942;73.394;2023-02-11T02:03:42;19.00;14.00;7.33
65574;PMS5003;52216;54.942;73.394;2023-02-11T02:06:49;17.25;13.50;7.50
65574;PMS5003;52216;54.942;73.394;2023-02-11T02:09:56;18.75;17.00;11.00
65574;PMS5003;52216;54.942;73.394;2023-02-11T02:13:05;18.80;16.40;11.40
65574;PMS5003;52216;54.942;73.394;2023-02-11T02:16:10;21.00;18.00;12.00
65574;PMS5003;52216;54.942;73.394;2023-02-11T02:22:40;22.00;19.00;12.00
65574;PMS5003;52216;54.942;73.394;2023-02-11T02:26:06;20.00;17.00;12.00
65574;PMS5003;52216;54.942;73.394;2023-02-11T02:29:30;22.25;18.50;11.50
65574;PMS5003;52216;54.942;73.394;2023-02-11T02:36:45;23.00;18.50;12.00
65574;PMS5003;52216;54.942;73.394;2023-02-11T02:39:32;22.00;19.00;12.00
65574;PMS5003;52216;54.942;73.394;2023-02-11T02:42:45;22.00;19.00;12.00
65574;PMS5003;52216;54.942;73.394;2023-02-11T02:45:49;23.00;19.00;11.00
65574;PMS5003;52216;54.942;73.394;2023-02-11T02:48:52;21.25;18.00;11.00
65574;PMS5003;52216;54.942;73.394;2023-02-11T02:52:35;22.00;19.00;11.00
65574;PMS5003;52216;54.942;73.394;2023-02-11T02:55:43;26.00;21.00;14.00
65574;PMS5003;52216;54.942;73.394;2023-02-11T02:59:38;22.00;18.00;11.00
65574;PMS5003;52216;54.942;73.394;2023-02-11T03:02:28;22.00;18.00;12.00
65574;PMS5003;52216;54.942;73.394;2023-02-11T03:08:38;21.00;18.00;12.00
65574;PMS5003;52216;54.942;73.394;2023-02-11T03:11:55;18.40;17.00;11.00
65574;PMS5003;52216;54.942;73.394;2023-02-11T03:14:57;20.00;18.00;11.00
65574;PMS5003;52216;54.942;73.394;2023-02-11T03:18:00;20.50;19.00;12.00
65574;PMS5003;52216;54.942;73.394;2023-02-11T03:21:04;22.00;18.25;12.00
65574;PMS5003;52216;54.942;73.394;2023-02-11T03:24:11;26.25;21.00;13.00
65574;PMS5003;52216;54.942;73.394;2023-02-11T03:27:35;25.00;21.00;13.00
65574;PMS5003;52216;54.942;73.394;2023-02-11T03:30:42;27.00;22.00;14.00
65574;PMS5003;52216;54.942;73.394;2023-02-11T03:33:54;29.25;23.25;15.00
65574;PMS5003;52216;54.942;73.394;2023-02-11T03:37:04;31.00;24.67;15.00
65574;PMS5003;52216;54.942;73.394;2023-02-11T03:40:16;33.00;26.50;17.00
65574;PMS5003;52216;54.942;73.394;2023-02-11T03:43:22;33.00;26.40;16.00
65574;PMS5003;52216;54.942;73.394;2023-02-11T03:46:37;31.00;25.00;15.00
65574;PMS5003;52216;54.942;73.394;2023-02-11T03:49:42;31.67;25.00;16.00
65574;PMS5003;52216;54.942;73.394;2023-02-11T03:52:48;33.20;27.00;16.60
65574;PMS5003;52216;54.942;73.394;2023-02-11T03:55:51;33.00;27.00;16.00
65574;PMS5003;52216;54.942;73.394;2023-02-11T03:58:55;32.00;25.75;15.25
65574;PMS5003;52216;54.942;73.394;2023-02-11T04:01:57;32.50;25.00;16.00
65574;PMS5003;52216;54.942;73.394;2023-02-11T04:05:06;32.50;25.25;16.00
65574;PMS5003;52216;54.942;73.394;2023-02-11T04:08:09;32.00;25.00;16.00
65574;PMS5003;52216;54.942;73.394;2023-02-11T04:11:12;30.25;24.00;14.00
65574;PMS5003;52216;54.942;73.394;2023-02-11T04:14:14;30.00;24.00;14.00
65574;PMS5003;52216;54.942;73.394;2023-02-11T04:17:16;29.50;24.00;14.50
65574;PMS5003;52216;54.942;73.394;2023-02-11T04:20:20;29.00;22.00;14.00
65574;PMS5003;52216;54.942;73.394;2023-02-11T04:23:21;24.00;21.00;13.00
65574;PMS5003;52216;54.942;73.394;2023-02-11T04:26:23;25.00;21.00;13.00
65574;PMS5003;52216;54.942;73.394;2023-02-11T04:29:25;24.00;21.00;12.00
65574;PMS5003;52216;54.942;73.394;2023-02-11T04:32:28;21.50;18.00;12.00
65574;PMS5003;52216;54.942;73.394;2023-02-11T04:35:35;22.00;19.00;12.00
65574;PMS5003;52216;54.942;73.394;2023-02-11T04:38:37;25.00;20.00;12.00
65574;PMS5003;52216;54.942;73.394;2023-02-11T04:41:40;22.50;19.00;12.00
65574;PMS5003;52216;54.942;73.394;2023-02-11T04:44:42;21.00;18.00;12.00
65574;PMS5003;52216;54.942;73.394;2023-02-11T04:47:54;22.75;19.00;11.00
65574;PMS5003;52216;54.942;73.394;2023-02-11T04:50:57;27.25;20.00;12.00
65574;PMS5003;52216;54.942;73.394;2023-02-11T04:54:00;25.00;20.00;12.00
65574;PMS5003;52216;54.942;73.394;2023-02-11T04:57:13;24.00;19.25;12.00
65574;PMS5003;52216;54.942;73.394;2023-02-11T05:00:15;24.50;20.00;12.00
65574;PMS5003;52216;54.942;73.394;2023-02-11T05:03:28;25.00;20.50;12.75
65574;PMS5003;52216;54.942;73.394;2023-02-11T05:06:41;22.25;20.00;13.00
65574;PMS5003;52216;54.942;73.394;2023-02-11T05:09:53;21.25;19.50;11.00
65574;PMS5003;52216;54.942;73.394;2023-02-11T05:12:55;18.00;16.00;9.00
65574;PMS5003;52216;54.942;73.394;2023-02-11T05:15:57;16.00;14.00;8.00
65574;PMS5003;52216;54.942;73.394;2023-02-11T05:18:59;15.50;13.00;6.00
65574;PMS5003;52216;54.942;73.394;2023-02-11T05:22:02;15.00;13.25;7.00
65574;PMS5003;52216;54.942;73.394;2023-02-11T05:25:04;14.50;13.50;7.00
65574;PMS5003;52216;54.942;73.394;2023-02-11T05:28:06;16.00;15.00;8.00
65574;PMS5003;52216;54.942;73.394;2023-02-11T05:31:10;20.00;17.00;7.00
65574;PMS5003;52216;54.942;73.394;2023-02-11T05:34:13;16.00;14.00;6.00
65574;PMS5003;52216;54.942;73.394;2023-02-11T05:37:15;13.00;12.25;5.00
65574;PMS5003;52216;54.942;73.394;2023-02-11T05:40:22;14.75;13.25;4.00
65574;PMS5003;52216;54.942;73.394;2023-02-11T05:43:55;17.50;15.50;6.50
65574;PMS5003;52216;54.942;73.394;2023-02-11T05:47:09;19.00;17.00;8.00
65574;PMS5003;52216;54.942;73.394;2023-02-11T05:50:14;20.50;15.50;8.00
65574;PMS5003;52216;54.942;73.394;2023-02-11T05:53:55;21.80;18.60;10.80
65574;PMS5003;52216;54.942;73.394;2023-02-11T05:56:57;23.50;19.00;12.00
65574;PMS5003;52216;54.942;73.394;2023-02-11T05:59:58;18.00;16.00;8.00
65574;PMS5003;52216;54.942;73.394;2023-02-11T06:03:02;19.00;17.00;10.00
65574;PMS5003;52216;54.942;73.394;2023-02-11T06:06:11;19.25;16.25;10.00
65574;PMS5003;52216;54.942;73.394;2023-02-11T06:09:13;18.75;16.25;8.00
65574;PMS5003;52216;54.942;73.394;2023-02-11T06:12:22;21.00;16.00;8.00
65574;PMS5003;52216;54.942;73.394;2023-02-11T06:15:23;19.00;16.00;7.00
65574;PMS5003;52216;54.942;73.394;2023-02-11T06:18:27;19.00;15.33;7.00
65574;PMS5003;52216;54.942;73.394;2023-02-11T06:21:40;17.75;17.00;7.00
65574;PMS5003;52216;54.942;73.394;2023-02-11T06:24:43;14.50;14.00;5.00
65574;PMS5003;52216;54.942;73.394;2023-02-11T06:27:55;16.00;15.00;6.75
65574;PMS5003;52216;54.942;73.394;2023-02-11T06:30:57;18.00;14.00;6.00
65574;PMS5003;52216;54.942;73.394;2023-02-11T06:33:59;17.00;13.00;5.25
65574;PMS5003;52216;54.942;73.394;2023-02-11T06:37:03;13.75;12.00;4.00
65574;PMS5003;52216;54.942;73.394;2023-02-11T06:40:14;15.67;15.00;6.00
65574;PMS5003;52216;54.942;73.394;2023-02-11T06:43:17;17.00;16.00;7.00
65574;PMS5003;52216;54.942;73.394;2023-02-11T06:46:30;18.50;15.50;7.00
65574;PMS5003;52216;54.942;73.394;2023-02-11T06:49:42;21.00;17.00;7.50
65574;PMS5003;52216;54.942;73.394;2023-02-11T06:52:45;18.33;15.00;8.00
65574;PMS5003;52216;54.942;73.394;2023-02-11T06:55:47;19.00;14.50;7.50
65574;PMS5003;52216;54.942;73.394;2023-02-11T06:58:56;17.75;15.00;7.75
65574;PMS5003;52216;54.942;73.394;2023-02-11T07:02:09;15.00;12.00;5.00
65574;PMS5003;52216;54.942;73.394;2023-02-11T07:05:13;14.00;13.00;4.00
65574;PMS5003;52216;54.942;73.394;2023-02-11T07:08:20;16.75;14.00;5.00
65574;PMS5003;52216;54.942;73.394;2023-02-11T07:11:24;16.00;14.25;6.00
65574;PMS5003;52216;54.942;73.394;2023-02-11T07:14:27;18.00;16.00;7.00
65574;PMS5003;52216;54.942;73.394;2023-02-11T07:17:34;21.00;19.00;9.75
65574;PMS5003;52216;54.942;73.394;2023-02-11T07:20:37;19.75;17.00;10.00
65574;PMS5003;52216;54.942;73.394;2023-02-11T07:23:43;19.25;17.75;9.25
65574;PMS5003;52216;54.942;73.394;2023-02-11T07:26:45;20.25;19.00;10.00
65574;PMS5003;52216;54.942;73.394;2023-02-11T07:29:47;18.00;17.00;10.50
65574;PMS5003;52216;54.942;73.394;2023-02-11T07:32:50;17.50;16.25;10.00
65574;PMS5003;52216;54.942;73.394;2023-02-11T07:36:01;19.50;17.50;10.00
65574;PMS5003;52216;54.942;73.394;2023-02-11T07:39:04;21.00;18.00;11.00
65574;PMS5003;52216;54.942;73.394;2023-02-11T07:42:07;21.00;18.75;11.00
65574;PMS5003;52216;54.942;73.394;2023-02-11T07:45:11;15.75;14.00;7.00
65574;PMS5003;52216;54.942;73.394;2023-02-11T07:48:14;14.00;13.00;5.00
65574;PMS5003;52216;54.942;73.394;2023-02-11T07:51:18;13.25;12.00;5.00
65574;PMS5003;52216;54.942;73.394;2023-02-11T07:54:20;12.00;12.00;4.00
65574;PMS5003;52216;54.942;73.394;2023-02-11T07:57:23;15.00;14.00;4.75
65574;PMS5003;52216;54.942;73.394;2023-02-11T08:00:35;14.00;14.00;5.00
65574;PMS5003;52216;54.942;73.394;2023-02-11T08:03:38;12.00;10.50;4.00
65574;PMS5003;52216;54.942;73.394;2023-02-11T08:06:41;12.00;10.00;3.00
65574;PMS5003;52216;54.942;73.394;2023-02-11T08:09:45;12.75;11.25;5.00
65574;PMS5003;52216;54.942;73.394;2023-02-11T08:12:47;13.00;12.00;4.00
65574;PMS5003;52216;54.942;73.394;2023-02-11T08:15:49;10.00;10.00;2.50
65574;PMS5003;52216;54.942;73.394;2023-02-11T08:19:03;12.25;11.00;3.00
65574;PMS5003;52216;54.942;73.394;2023-02-11T08:22:06;12.67;11.00;3.67
65574;PMS5003;52216;54.942;73.394;2023-02-11T08:25:19;13.00;12.00;3.00
65574;PMS5003;52216;54.942;73.394;2023-02-11T08:28:21;13.00;12.50;4.00
65574;PMS5003;52216;54.942;73.394;2023-02-11T08:31:25;16.00;14.00;5.00
65574;PMS5003;52216;54.942;73.394;2023-02-11T08:34:28;19.75;16.00;7.50
65574;PMS5003;52216;54.942;73.394;2023-02-11T08:37:30;18.00;16.00;8.00
65574;PMS5003;52216;54.942;73.394;2023-02-11T08:40:32;17.00;14.50;5.00
65574;PMS5003;52216;54.942;73.394;2023-02-11T08:43:35;17.00;16.00;7.00
65574;PMS5003;52216;54.942;73.394;2023-02-11T08:46:46;18.00;17.00;6.75
65574;PMS5003;52216;54.942;73.394;2023-02-11T08:49:58;18.00;16.00;6.00
65574;PMS5003;52216;54.942;73.394;2023-02-11T08:53:00;16.50;15.00;7.00
65574;PMS5003;52216;54.942;73.394;2023-02-11T08:56:03;18.00;17.00;7.00
65574;PMS5003;52216;54.942;73.394;2023-02-11T08:59:06;16.00;15.00;6.33
65574;PMS5003;52216;54.942;73.394;2023-02-11T09:02:11;18.00;16.00;8.00
65574;PMS5003;52216;54.942;73.394;2023-02-11T09:05:16;16.00;14.00;5.75
65574;PMS5003;52216;54.942;73.394;2023-02-11T09:08:23;19.00;16.00;9.00
65574;PMS5003;52216;54.942;73.394;2023-02-11T09:11:28;22.00;19.00;10.00
65574;PMS5003;52216;54.942;73.394;2023-02-11T09:14:32;23.75;20.00;10.75
65574;PMS5003;52216;54.942;73.394;2023-02-11T09:17:34;23.67;19.00;11.00
65574;PMS5003;52216;54.942;73.394;2023-02-11T09:20:48;22.00;18.00;15.50
65574;PMS5003;52216;54.942;73.394;2023-02-11T09:23:51;22.00;19.00;11.00
65574;PMS5003;52216;54.942;73.394;2023-02-11T09:26:53;22.00;19.00;12.00
65574;PMS5003;52216;54.942;73.394;2023-02-11T09:29:55;22.00;19.00;12.00
65574;PMS5003;52216;54.942;73.394;2023-02-11T09:32:58;20.00;18.00;10.00
65574;PMS5003;52216;54.942;73.394;2023-02-11T09:36:06;18.00;17.00;9.00
65574;PMS5003;52216;54.942;73.394;2023-02-11T09:39:19;18.75;15.00;7.75
65574;PMS5003;52216;54.942;73.394;2023-02-11T09:45:33;16.25;14.00;6.50
65574;PMS5003;52216;54.942;73.394;2023-02-11T09:48:48;19.67;17.67;8.00
65574;PMS5003;52216;54.942;73.394;2023-02-11T09:51:53;19.00;17.00;8.00
65574;PMS5003;52216;54.942;73.394;2023-02-11T09:54:59;18.00;15.00;7.00
65574;PMS5003;52216;54.942;73.394;2023-02-11T09:58:15;17.00;16.00;7.00
65574;PMS5003;52216;54.942;73.394;2023-02-11T10:01:40;14.00;12.00;5.00
65574;PMS5003;52216;54.942;73.394;2023-02-11T10:08:00;13.50;12.00;5.00
65574;PMS5003;52216;54.942;73.394;2023-02-11T10:11:19;12.00;11.50;4.00
65574;PMS5003;52216;54.942;73.394;2023-02-11T10:21:30;13.50;12.50;5.75
65574;PMS5003;52216;54.942;73.394;2023-02-11T10:24:34;15.50;14.00;5.00
65574;PMS5003;52216;54.942;73.394;2023-02-11T10:27:44;16.00;15.00;5.00
65574;PMS5003;52216;54.942;73.394;2023-02-11T10:31:03;18.75;17.50;9.00
65574;PMS5003;52216;54.942;73.394;2023-02-11T10:34:09;18.00;15.67;9.00
65574;PMS5003;52216;54.942;73.394;2023-02-11T10:37:12;19.00;16.00;8.25
65574;PMS5003;52216;54.942;73.394;2023-02-11T10:40:16;18.00;15.00;9.00
65574;PMS5003;52216;54.942;73.394;2023-02-11T10:43:28;20.00;17.00;8.25
65574;PMS5003;52216;54.942;73.394;2023-02-11T10:46:35;18.00;15.50;8.50
65574;PMS5003;52216;54.942;73.394;2023-02-11T10:49:41;17.25;15.50;8.00
65574;PMS5003;52216;54.942;73.394;2023-02-11T10:52:44;18.00;16.00;8.00
65574;PMS5003;52216;54.942;73.394;2023-02-11T10:55:56;20.63;18.25;9.00
65574;PMS5003;52216;54.942;73.394;2023-02-11T10:59:03;20.00;17.00;7.00
65574;PMS5003;52216;54.942;73.394;2023-02-11T11:05:47;19.00;16.33;9.00
65574;PMS5003;52216;54.942;73.394;2023-02-11T11:09:01;20.00;19.00;9.75
65574;PMS5003;52216;54.942;73.394;2023-02-11T11:12:05;23.00;20.00;10.50
65574;PMS5003;52216;54.942;73.394;2023-02-11T11:18:17;18.00;14.50;9.00
65574;PMS5003;52216;54.942;73.394;2023-02-11T11:24:27;16.00;14.25;8.00
65574;PMS5003;52216;54.942;73.394;2023-02-11T11:27:32;17.33;16.33;9.67
65574;PMS5003;52216;54.942;73.394;2023-02-11T11:30:38;18.75;16.00;10.00
65574;PMS5003;52216;54.942;73.394;2023-02-11T11:33:42;23.00;20.00;12.00
65574;PMS5003;52216;54.942;73.394;2023-02-11T11:36:47;23.00;19.00;12.00
65574;PMS5003;52216;54.942;73.394;2023-02-11T11:40:01;22.33;19.00;12.00
65574;PMS5003;52216;54.942;73.394;2023-02-11T11:43:17;21.50;18.00;11.00
65574;PMS5003;52216;54.942;73.394;2023-02-11T11:46:33;21.00;18.00;10.00
65574;PMS5003;52216;54.942;73.394;2023-02-11T11:56:26;23.50;20.00;12.50
65574;PMS5003;52216;54.942;73.394;2023-02-11T11:59:39;25.00;22.00;14.00
65574;PMS5003;52216;54.942;73.394;2023-02-11T12:12:45;25.75;21.00;13.00
65574;PMS5003;52216;54.942;73.394;2023-02-11T12:29:12;22.50;19.00;12.00
65574;PMS5003;52216;54.942;73.394;2023-02-11T12:38:47;26.00;22.00;13.25
65574;PMS5003;52216;54.942;73.394;2023-02-11T12:45:45;24.50;20.25;12.00
65574;PMS5003;52216;54.942;73.394;2023-02-11T12:52:47;28.33;23.67;14.33
65574;PMS5003;52216;54.942;73.394;2023-02-11T12:56:39;28.00;22.50;14.00
65574;PMS5003;52216;54.942;73.394;2023-02-11T13:02:50;21.75;18.25;11.25
65574;PMS5003;52216;54.942;73.394;2023-02-11T13:05:57;23.00;20.00;12.00
65574;PMS5003;52216;54.942;73.394;2023-02-11T13:09:04;23.33;20.00;12.00
65574;PMS5003;52216;54.942;73.394;2023-02-11T13:12:12;25.50;21.50;13.00
65574;PMS5003;52216;54.942;73.394;2023-02-11T13:15:36;29.00;23.50;14.00
65574;PMS5003;52216;54.942;73.394;2023-02-11T13:18:46;26.00;22.00;14.00
65574;PMS5003;52216;54.942;73.394;2023-02-11T13:25:23;24.00;20.00;11.00
65574;PMS5003;52216;54.942;73.394;2023-02-11T13:31:53;20.25;18.00;10.25
65574;PMS5003;52216;54.942;73.394;2023-02-11T13:35:25;23.60;19.00;11.40
65574;PMS5003;52216;54.942;73.394;2023-02-11T13:38:27;25.00;19.25;12.00
65574;PMS5003;52216;54.942;73.394;2023-02-11T13:41:40;22.00;19.00;12.00
65574;PMS5003;52216;54.942;73.394;2023-02-11T13:44:54;24.00;20.00;12.00
65574;PMS5003;52216;54.942;73.394;2023-02-11T13:48:03;26.50;22.00;13.00
65574;PMS5003;52216;54.942;73.394;2023-02-11T13:51:09;27.00;22.00;13.25
65574;PMS5003;52216;54.942;73.394;2023-02-11T13:54:24;28.75;23.50;14.25
65574;PMS5003;52216;54.942;73.394;2023-02-11T13:57:29;29.00;24.33;15.00
65574;PMS5003;52216;54.942;73.394;2023-02-11T14:03:37;32.00;25.00;16.00
65574;PMS5003;52216;54.942;73.394;2023-02-11T14:10:50;31.50;25.00;15.00
65574;PMS5003;52216;54.942;73.394;2023-02-11T14:20:02;34.00;27.00;17.00
65574;PMS5003;52216;54.942;73.394;2023-02-11T14:23:15;34.25;27.50;17.00
65574;PMS5003;52216;54.942;73.394;2023-02-11T14:26:34;33.00;27.00;16.50
65574;PMS5003;52216;54.942;73.394;2023-02-11T14:36:01;23.50;20.00;13.00
65574;PMS5003;52216;54.942;73.394;2023-02-11T14:42:28;19.00;16.67;10.00
65574;PMS5003;52216;54.942;73.394;2023-02-11T14:45:33;17.00;15.00;8.00
65574;PMS5003;52216;54.942;73.394;2023-02-11T14:48:36;17.67;15.00;8.00
65574;PMS5003;52216;54.942;73.394;2023-02-11T14:51:52;18.00;15.25;7.25
65574;PMS5003;52216;54.942;73.394;2023-02-11T15:01:30;19.00;17.00;10.00
65574;PMS5003;52216;54.942;73.394;2023-02-11T15:04:44;18.00;16.00;9.67
65574;PMS5003;52216;54.942;73.394;2023-02-11T15:08:02;20.25;17.50;10.00
65574;PMS5003;52216;54.942;73.394;2023-02-11T15:11:07;24.50;20.00;11.00
65574;PMS5003;52216;54.942;73.394;2023-02-11T15:14:17;21.00;18.00;11.00
65574;PMS5003;52216;54.942;73.394;2023-02-11T15:17:23;21.25;18.00;11.00
65574;PMS5003;52216;54.942;73.394;2023-02-11T15:20:28;21.25;18.50;11.00
65574;PMS5003;52216;54.942;73.394;2023-02-11T15:23:33;21.00;18.00;11.00
65574;PMS5003;52216;54.942;73.394;2023-02-11T15:26:35;22.50;19.75;12.00
65574;PMS5003;52216;54.942;73.394;2023-02-11T15:29:39;21.25;18.00;11.50
65574;PMS5003;52216;54.942;73.394;2023-02-11T15:32:43;21.50;18.00;11.00
65574;PMS5003;52216;54.942;73.394;2023-02-11T15:35:46;21.00;17.25;11.00
65574;PMS5003;52216;54.942;73.394;2023-02-11T15:45:41;18.00;15.00;9.50
65574;PMS5003;52216;54.942;73.394;2023-02-11T15:48:51;19.00;16.20;11.00
65574;PMS5003;52216;54.942;73.394;2023-02-11T15:52:04;19.00;17.00;11.00
65574;PMS5003;52216;54.942;73.394;2023-02-11T15:55:11;18.00;16.20;10.00
65574;PMS5003;52216;54.942;73.394;2023-02-11T15:58:14;19.00;17.00;10.00
65574;PMS5003;52216;54.942;73.394;2023-02-11T16:01:17;20.00;16.50;11.00
65574;PMS5003;52216;54.942;73.394;2023-02-11T16:04:21;18.25;16.00;11.00
65574;PMS5003;52216;54.942;73.394;2023-02-11T16:07:38;18.00;15.00;10.00
65574;PMS5003;52216;54.942;73.394;2023-02-11T16:10:57;18.50;16.25;10.00
65574;PMS5003;52216;54.942;73.394;2023-02-11T16:17:26;17.50;15.00;10.00
65574;PMS5003;52216;54.942;73.394;2023-02-11T16:20:31;16.50;15.00;10.00
65574;PMS5003;52216;54.942;73.394;2023-02-11T16:23:34;15.00;14.00;10.00
65574;PMS5003;52216;54.942;73.394;2023-02-11T16:26:50;15.00;15.00;9.00
65574;PMS5003;52216;54.942;73.394;2023-02-11T16:29:55;16.00;14.75;6.75
65574;PMS5003;52216;54.942;73.394;2023-02-11T16:33:09;14.00;11.00;5.00
65574;PMS5003;52216;54.942;73.394;2023-02-11T16:36:13;15.00;13.00;6.00
65574;PMS5003;52216;54.942;73.394;2023-02-11T16:39:38;15.00;13.00;6.00
65574;PMS5003;52216;54.942;73.394;2023-02-11T16:42:41;18.00;14.33;8.00
65574;PMS5003;52216;54.942;73.394;2023-02-11T16:45:48;14.00;13.00;8.00
65574;PMS5003;52216;54.942;73.394;2023-02-11T16:48:50;15.75;13.75;6.75
65574;PMS5003;52216;54.942;73.394;2023-02-11T16:51:54;14.00;13.00;6.00
65574;PMS5003;52216;54.942;73.394;2023-02-11T16:54:58;13.00;13.00;6.00
65574;PMS5003;52216;54.942;73.394;2023-02-11T16:58:12;14.25;13.00;5.50
65574;PMS5003;52216;54.942;73.394;2023-02-11T17:01:14;12.50;11.00;5.00
65574;PMS5003;52216;54.942;73.394;2023-02-11T17:04:18;11.00;11.00;5.00
65574;PMS5003;52216;54.942;73.394;2023-02-11T17:07:22;11.00;11.00;4.25
65574;PMS5003;52216;54.942;73.394;2023-02-11T17:10:26;13.25;11.25;5.00
65574;PMS5003;52216;54.942;73.394;2023-02-11T17:13:28;16.00;15.00;8.00
65574;PMS5003;52216;54.942;73.394;2023-02-11T17:16:30;14.33;13.00;5.00
65574;PMS5003;52216;54.942;73.394;2023-02-11T17:19:38;16.00;13.20;6.20
65574;PMS5003;52216;54.942;73.394;2023-02-11T17:22:46;18.00;15.25;9.00
65574;PMS5003;52216;54.942;73.394;2023-02-11T17:25:58;17.50;15.25;7.25
65574;PMS5003;52216;54.942;73.394;2023-02-11T17:29:01;17.75;15.00;8.00
65574;PMS5003;52216;54.942;73.394;2023-02-11T17:32:03;19.00;16.00;8.00
65574;PMS5003;52216;54.942;73.394;2023-02-11T17:35:06;17.75;15.50;9.25
65574;PMS5003;52216;54.942;73.394;2023-02-11T17:38:08;19.00;16.00;10.00
65574;PMS5003;52216;54.942;73.394;2023-02-11T17:41:10;19.00;17.00;9.00
65574;PMS5003;52216;54.942;73.394;2023-02-11T17:44:13;18.00;16.00;10.00
65574;PMS5003;52216;54.942;73.394;2023-02-11T17:47:17;16.00;14.25;9.00
65574;PMS5003;52216;54.942;73.394;2023-02-11T17:50:29;16.00;14.33;9.00
65574;PMS5003;52216;54.942;73.394;2023-02-11T17:53:42;16.00;14.00;8.00
65574;PMS5003;52216;54.942;73.394;2023-02-11T17:56:44;13.00;13.00;6.00
65574;PMS5003;52216;54.942;73.394;2023-02-11T18:00:01;15.00;13.00;6.00
65574;PMS5003;52216;54.942;73.394;2023-02-11T18:03:06;14.25;12.00;5.00
65574;PMS5003;52216;54.942;73.394;2023-02-11T18:06:10;16.67;14.67;6.00
65574;PMS5003;52216;54.942;73.394;2023-02-11T18:09:12;16.00;14.25;8.00
65574;PMS5003;52216;54.942;73.394;2023-02-11T18:12:15;18.00;15.00;9.00
65574;PMS5003;52216;54.942;73.394;2023-02-11T18:15:26;16.50;15.50;9.00
65574;PMS5003;52216;54.942;73.394;2023-02-11T18:18:34;14.00;13.00;5.00
65574;PMS5003;52216;54.942;73.394;2023-02-11T18:21:42;13.25;13.00;5.00
65574;PMS5003;52216;54.942;73.394;2023-02-11T18:24:44;13.00;12.50;4.25
65574;PMS5003;52216;54.942;73.394;2023-02-11T18:27:47;11.50;10.75;4.50
65574;PMS5003;52216;54.942;73.394;2023-02-11T18:30:55;15.75;14.25;6.00
65574;PMS5003;52216;54.942;73.394;2023-02-11T18:34:10;16.00;14.00;6.00
65574;PMS5003;52216;54.942;73.394;2023-02-11T18:37:12;14.00;13.50;6.00
65574;PMS5003;52216;54.942;73.394;2023-02-11T18:40:23;16.13;14.25;6.00
65574;PMS5003;52216;54.942;73.394;2023-02-11T18:43:25;18.00;14.25;5.75
65574;PMS5003;52216;54.942;73.394;2023-02-11T18:46:36;14.00;13.00;5.00
65574;PMS5003;52216;54.942;73.394;2023-02-11T18:49:39;16.00;13.50;5.00
65574;PMS5003;52216;54.942;73.394;2023-02-11T18:52:42;14.50;13.75;5.50
65574;PMS5003;52216;54.942;73.394;2023-02-11T18:55:45;14.00;14.00;6.00
65574;PMS5003;52216;54.942;73.394;2023-02-11T18:58:49;14.00;13.00;4.67
65574;PMS5003;52216;54.942;73.394;2023-02-11T19:02:03;12.00;11.25;4.00
65574;PMS5003;52216;54.942;73.394;2023-02-11T19:05:06;13.00;11.50;4.00
65574;PMS5003;52216;54.942;73.394;2023-02-11T19:08:10;12.00;11.00;4.00
65574;PMS5003;52216;54.942;73.394;2023-02-11T19:11:13;14.00;12.00;4.00
65574;PMS5003;52216;54.942;73.394;2023-02-11T19:14:25;12.50;11.00;3.00
65574;PMS5003;52216;54.942;73.394;2023-02-11T19:17:39;13.25;10.75;3.50
65574;PMS5003;52216;54.942;73.394;2023-02-11T19:20:45;16.00;13.00;5.00
65574;PMS5003;52216;54.942;73.394;2023-02-11T19:23:47;14.75;13.00;6.00
65574;PMS5003;52216;54.942;73.394;2023-02-11T19:26:51;12.75;11.75;4.25
65574;PMS5003;52216;54.942;73.394;2023-02-11T19:29:58;13.00;12.00;4.00
65574;PMS5003;52216;54.942;73.394;2023-02-11T19:33:01;14.00;13.00;4.00